Terminal Aerodrome Forecast
Issued by NWS Jackson, MS

Home | Current Version | Previous Version | Text Only | Print | Product List | Glossary On
Versions: 1 2 3 4 5 6 7 8 9 10 11 12 13 14
034
FTUS44 KMEG 221131
TAFTUP
TAF
KTUP 221131Z 2212/2312 09009KT P6SM VCSH BKN020 OVC090
     FM222100 10008KT 5SM -TSRA BR OVC015CB
     FM230100 VRB03KT 5SM BR VCSH OVC015
     FM230800 00000KT 5SM BR OVC007=

USA.gov is the U.S. government's official web portal to all federal, state and local government web resources and services.